Time;durP1;ratioP1;P1;durP2;ratioP2;P2;SDS_P1;SDS_P2;PMS_P1;PMS_P2;Temp;Humidity;BMP_temperature;BMP_pressure;BME280_temperature;BME280_humidity;BME280_pressure;Samples;Min_cycle;Max_cycle;Signal;HPM_P1;HPM_P2
2023/12/20 00:02:19;;;;;;;12.50;1.20;;;;;;;;;;4970773;28;20050;-51
2023/12/20 00:04:48;;;;;;;10.45;0.93;;;;;;;;;;4937879;28;20708;-48
2023/12/20 00:07:17;;;;;;;7.53;1.33;;;;;;;;;;4976459;28;20046;-50
2023/12/20 00:09:44;;;;;;;9.48;1.23;;;;;;;;;;4974041;28;20053;-50
2023/12/20 00:12:12;;;;;;;11.55;1.58;;;;;;;;;;4964513;28;20170;-53
2023/12/20 00:14:40;;;;;;;9.80;1.33;;;;;;;;;;4964410;28;20038;-47
2023/12/20 00:17:07;;;;;;;7.43;1.25;;;;;;;;;;4971828;28;20038;-49
2023/12/20 00:19:36;;;;;;;9.68;0.90;;;;;;;;;;4972158;28;20045;-53
2023/12/20 00:22:06;;;;;;;8.48;0.85;;;;;;;;;;4968648;28;20836;-52
2023/12/20 00:24:34;;;;;;;12.85;1.42;;;;;;;;;;4967291;28;20127;-52
2023/12/20 00:27:02;;;;;;;12.03;1.10;;;;;;;;;;4972897;28;20045;-52
2023/12/20 00:29:30;;;;;;;13.73;1.10;;;;;;;;;;4968988;28;20042;-47
2023/12/20 00:31:57;;;;;;;9.50;1.17;;;;;;;;;;4981414;28;20053;-52
2023/12/20 00:34:25;;;;;;;12.20;1.17;;;;;;;;;;4966897;28;20050;-52
2023/12/20 00:36:54;;;;;;;20.73;1.42;;;;;;;;;;4971621;28;20078;-54
2023/12/20 00:39:24;;;;;;;9.83;1.10;;;;;;;;;;4967715;28;20061;-51
2023/12/20 00:41:51;;;;;;;18.02;1.55;;;;;;;;;;4970665;28;20689;-50
2023/12/20 00:44:19;;;;;;;12.20;1.98;;;;;;;;;;4973601;28;20492;-50
2023/12/20 00:46:47;;;;;;;15.55;1.20;;;;;;;;;;4964361;28;20052;-53
2023/12/20 00:49:15;;;;;;;6.13;0.60;;;;;;;;;;4970825;28;20048;-50
2023/12/20 00:51:43;;;;;;;8.90;0.70;;;;;;;;;;4969577;28;20046;-50
2023/12/20 00:54:11;;;;;;;9.27;1.35;;;;;;;;;;4983831;28;20113;-49
2023/12/20 00:56:40;;;;;;;11.35;0.80;;;;;;;;;;4970805;28;20056;-51
2023/12/20 00:59:08;;;;;;;10.10;0.85;;;;;;;;;;4978165;28;20934;-51
2023/12/20 01:01:36;;;;;;;11.60;1.35;;;;;;;;;;4972513;28;20042;-49
2023/12/20 01:04:04;;;;;;;10.60;0.73;;;;;;;;;;4970950;28;20042;-49
2023/12/20 01:06:31;;;;;;;15.68;1.00;;;;;;;;;;4968090;28;20095;-53
2023/12/20 01:09:00;;;;;;;7.22;0.75;;;;;;;;;;4968665;28;20056;-52
2023/12/20 01:11:31;;;;;;;17.73;1.42;;;;;;;;;;4996736;28;20053;-51
2023/12/20 01:14:00;;;;;;;7.88;0.93;;;;;;;;;;4972900;28;20057;-50
2023/12/20 01:16:28;;;;;;;11.17;0.70;;;;;;;;;;4978366;28;20104;-48
2023/12/20 01:18:55;;;;;;;10.90;1.05;;;;;;;;;;4977474;28;20046;-48
2023/12/20 01:21:23;;;;;;;15.30;2.45;;;;;;;;;;4979460;28;20053;-52
2023/12/20 01:23:51;;;;;;;11.73;1.83;;;;;;;;;;4969561;28;20042;-48
2023/12/20 01:26:19;;;;;;;12.23;1.70;;;;;;;;;;4970926;28;20042;-53
2023/12/20 01:28:46;;;;;;;12.43;2.10;;;;;;;;;;4974746;28;20042;-52
2023/12/20 01:31:16;;;;;;;17.98;2.03;;;;;;;;;;4960892;28;20044;-54
2023/12/20 01:33:45;;;;;;;11.30;1.52;;;;;;;;;;4969952;28;20084;-50
2023/12/20 01:36:13;;;;;;;9.65;1.25;;;;;;;;;;4985364;28;20100;-53
2023/12/20 01:38:41;;;;;;;13.00;1.77;;;;;;;;;;4973494;28;20487;-52
2023/12/20 01:41:09;;;;;;;6.43;0.83;;;;;;;;;;4975893;28;20065;-48
2023/12/20 01:43:36;;;;;;;4.85;0.68;;;;;;;;;;4965588;28;20370;-47
2023/12/20 01:46:19;;;;;;;10.80;1.50;;;;;;;;;;4979481;28;20053;-52
2023/12/20 01:49:04;;;;;;;10.15;1.02;;;;;;;;;;4974886;28;20160;-50
2023/12/20 01:51:37;;;;;;;7.45;1.05;;;;;;;;;;4980611;28;20065;-49
2023/12/20 01:54:05;;;;;;;9.97;1.13;;;;;;;;;;4982825;28;20121;-48
2023/12/20 01:56:33;;;;;;;11.05;0.85;;;;;;;;;;4961330;28;20057;-48
2023/12/20 01:59:01;;;;;;;11.38;1.83;;;;;;;;;;4980783;28;20037;-47
2023/12/20 02:01:48;;;;;;;9.32;1.00;;;;;;;;;;5000344;28;20129;-49
2023/12/20 02:04:34;;;;;;;13.20;1.77;;;;;;;;;;4965260;28;20038;-48
2023/12/20 02:07:02;;;;;;;10.00;1.07;;;;;;;;;;4979190;28;20050;-49
2023/12/20 02:09:31;;;;;;;8.15;1.25;;;;;;;;;;4943072;28;20534;-49
2023/12/20 02:11:59;;;;;;;11.18;1.67;;;;;;;;;;4980598;28;20045;-50
2023/12/20 02:14:26;;;;;;;14.40;2.20;;;;;;;;;;4969906;28;20046;-50
2023/12/20 02:16:55;;;;;;;15.23;3.13;;;;;;;;;;4980142;28;20053;-53
2023/12/20 02:19:23;;;;;;;12.10;3.47;;;;;;;;;;4977883;28;20819;-53
2023/12/20 02:22:05;;;;;;;16.88;3.40;;;;;;;;;;4987254;28;20139;-48
2023/12/20 02:24:33;;;;;;;17.33;3.83;;;;;;;;;;4968345;28;20034;-50
2023/12/20 02:27:00;;;;;;;19.35;3.05;;;;;;;;;;4995012;28;20045;-48
2023/12/20 02:29:28;;;;;;;14.13;2.22;;;;;;;;;;4978279;28;20057;-48
2023/12/20 02:31:56;;;;;;;16.17;2.13;;;;;;;;;;4984812;28;20069;-51
2023/12/20 02:34:24;;;;;;;13.07;2.25;;;;;;;;;;4969371;28;20357;-48
2023/12/20 02:36:53;;;;;;;15.45;2.22;;;;;;;;;;4988189;28;20487;-50
2023/12/20 02:39:23;;;;;;;13.15;1.60;;;;;;;;;;4976563;28;20145;-48
2023/12/20 02:41:51;;;;;;;8.50;1.27;;;;;;;;;;4983330;28;20034;-50
2023/12/20 02:44:19;;;;;;;14.60;1.50;;;;;;;;;;4950850;28;20042;-47
2023/12/20 02:46:46;;;;;;;12.23;1.00;;;;;;;;;;4972267;28;20045;-48
2023/12/20 02:49:14;;;;;;;11.05;1.70;;;;;;;;;;4986744;28;20060;-48
2023/12/20 02:51:42;;;;;;;14.65;1.67;;;;;;;;;;4983276;28;20073;-48
2023/12/20 02:54:11;;;;;;;9.80;1.20;;;;;;;;;;4971817;28;20149;-47
2023/12/20 02:56:39;;;;;;;14.23;1.37;;;;;;;;;;4985945;28;20147;-49
2023/12/20 02:59:08;;;;;;;10.98;1.30;;;;;;;;;;4972333;28;20038;-52
2023/12/20 03:01:36;;;;;;;13.98;1.17;;;;;;;;;;4971012;28;20038;-48
2023/12/20 03:04:04;;;;;;;10.82;0.93;;;;;;;;;;4987925;28;20136;-48
2023/12/20 03:06:31;;;;;;;9.70;1.23;;;;;;;;;;4979824;28;21192;-48
2023/12/20 03:08:59;;;;;;;7.73;0.97;;;;;;;;;;4963889;28;20038;-50
2023/12/20 03:11:29;;;;;;;14.90;1.52;;;;;;;;;;4975190;28;20042;-48
2023/12/20 03:13:56;;;;;;;12.35;1.85;;;;;;;;;;4978622;28;20944;-47
2023/12/20 03:16:25;;;;;;;9.95;1.23;;;;;;;;;;4983451;28;20512;-52
2023/12/20 03:18:53;;;;;;;10.88;1.10;;;;;;;;;;4991044;28;20069;-47
2023/12/20 03:21:21;;;;;;;15.70;1.80;;;;;;;;;;4966900;28;20139;-52
2023/12/20 03:23:49;;;;;;;11.30;1.33;;;;;;;;;;4991105;28;20042;-48
2023/12/20 03:26:17;;;;;;;10.10;1.08;;;;;;;;;;4970875;28;20566;-52
2023/12/20 03:28:45;;;;;;;14.23;1.33;;;;;;;;;;4984884;28;20045;-47
2023/12/20 03:31:13;;;;;;;8.98;1.65;;;;;;;;;;4975614;28;20096;-53
2023/12/20 03:33:42;;;;;;;11.50;1.23;;;;;;;;;;4978443;28;20124;-51
2023/12/20 03:36:10;;;;;;;11.90;1.27;;;;;;;;;;4981088;28;20046;-51
2023/12/20 03:38:38;;;;;;;8.45;1.45;;;;;;;;;;4975495;28;20052;-50
2023/12/20 03:41:05;;;;;;;7.72;0.85;;;;;;;;;;4981166;28;20073;-50
2023/12/20 03:43:33;;;;;;;10.50;0.75;;;;;;;;;;4977435;28;20034;-53
2023/12/20 03:46:03;;;;;;;14.10;1.33;;;;;;;;;;4972968;28;20452;-46
2023/12/20 03:48:50;;;;;;;13.63;1.05;;;;;;;;;;4973008;28;20045;-49
2023/12/20 03:51:18;;;;;;;6.13;0.88;;;;;;;;;;4977103;28;20128;-49
2023/12/20 03:53:46;;;;;;;10.90;1.48;;;;;;;;;;4980332;28;20045;-50
2023/12/20 03:56:16;;;;;;;12.13;2.00;;;;;;;;;;4981111;28;20571;-49
2023/12/20 03:58:44;;;;;;;12.17;1.60;;;;;;;;;;4976295;28;20045;-53
2023/12/20 04:01:13;;;;;;;15.98;1.42;;;;;;;;;;4981089;28;20054;-48
2023/12/20 04:03:40;;;;;;;13.35;1.33;;;;;;;;;;4977482;28;20053;-50
2023/12/20 04:06:08;;;;;;;9.55;1.10;;;;;;;;;;4977005;28;20484;-47
2023/12/20 04:08:36;;;;;;;13.48;1.00;;;;;;;;;;4973809;28;20400;-50
2023/12/20 04:11:04;;;;;;;14.67;1.13;;;;;;;;;;4974290;28;20519;-49
2023/12/20 04:13:32;;;;;;;10.85;1.05;;;;;;;;;;4952096;28;20050;-51
2023/12/20 04:15:59;;;;;;;12.05;1.00;;;;;;;;;;4927706;28;20349;-49
2023/12/20 04:18:29;;;;;;;12.18;1.25;;;;;;;;;;4978928;28;20046;-49
2023/12/20 04:20:56;;;;;;;13.02;0.93;;;;;;;;;;4948968;28;20080;-47
2023/12/20 04:23:24;;;;;;;11.10;1.67;;;;;;;;;;4973144;28;20044;-47
2023/12/20 04:25:52;;;;;;;9.18;1.00;;;;;;;;;;4957064;28;20096;-51
2023/12/20 04:28:23;;;;;;;11.75;1.27;;;;;;;;;;4990469;28;20046;-53
2023/12/20 04:30:52;;;;;;;11.63;1.23;;;;;;;;;;4970391;28;20937;-47
2023/12/20 04:33:20;;;;;;;16.50;2.08;;;;;;;;;;4982075;28;20141;-53
2023/12/20 04:35:58;;;;;;;9.33;0.93;;;;;;;;;;4968190;28;20046;-50
2023/12/20 04:38:28;;;;;;;9.13;1.00;;;;;;;;;;4942803;28;20042;-50
2023/12/20 04:40:57;;;;;;;12.07;1.08;;;;;;;;;;4978618;28;20095;-47
2023/12/20 04:43:24;;;;;;;12.55;1.08;;;;;;;;;;4977206;28;20507;-47
2023/12/20 04:45:52;;;;;;;8.48;1.20;;;;;;;;;;4985566;28;20048;-48
2023/12/20 04:48:20;;;;;;;13.77;1.83;;;;;;;;;;4955141;28;20074;-49
2023/12/20 04:50:48;;;;;;;10.23;0.98;;;;;;;;;;4944057;28;20037;-50
2023/12/20 04:53:17;;;;;;;10.05;1.10;;;;;;;;;;4969279;28;20046;-50
2023/12/20 04:55:45;;;;;;;10.50;0.70;;;;;;;;;;4961720;28;20357;-52
2023/12/20 04:58:13;;;;;;;14.48;1.10;;;;;;;;;;4980517;28;20034;-48
2023/12/20 05:00:40;;;;;;;13.40;0.87;;;;;;;;;;4964575;28;20053;-49
2023/12/20 05:03:09;;;;;;;11.45;0.77;;;;;;;;;;4982120;28;20052;-53
2023/12/20 05:05:36;;;;;;;11.32;1.13;;;;;;;;;;4977322;28;20365;-51
2023/12/20 05:08:04;;;;;;;10.35;1.23;;;;;;;;;;4981697;28;20065;-53
2023/12/20 05:10:34;;;;;;;10.80;0.88;;;;;;;;;;4966580;28;20127;-49
2023/12/20 05:13:02;;;;;;;7.67;0.90;;;;;;;;;;4984908;28;20049;-51
2023/12/20 05:15:30;;;;;;;12.60;0.82;;;;;;;;;;4967456;28;20038;-52
2023/12/20 05:17:58;;;;;;;13.40;1.42;;;;;;;;;;4980851;28;20065;-51
2023/12/20 05:20:26;;;;;;;15.45;1.55;;;;;;;;;;4967572;28;20577;-51
2023/12/20 05:22:53;;;;;;;12.05;1.42;;;;;;;;;;4976970;28;20545;-47
2023/12/20 05:25:21;;;;;;;9.97;1.03;;;;;;;;;;4973384;28;20518;-50
2023/12/20 05:27:51;;;;;;;14.20;1.17;;;;;;;;;;4983470;28;20745;-47
2023/12/20 05:30:19;;;;;;;13.95;1.70;;;;;;;;;;4964741;28;20075;-50
2023/12/20 05:32:47;;;;;;;13.32;1.42;;;;;;;;;;4986039;28;20108;-49
2023/12/20 05:35:15;;;;;;;9.30;1.42;;;;;;;;;;4977867;28;20050;-47
2023/12/20 05:37:45;;;;;;;14.00;1.40;;;;;;;;;;4983384;28;20042;-51
2023/12/20 05:40:14;;;;;;;14.85;1.27;;;;;;;;;;4983410;28;20081;-53
2023/12/20 05:42:43;;;;;;;7.15;1.08;;;;;;;;;;4975106;28;20053;-51
2023/12/20 05:45:12;;;;;;;15.55;1.52;;;;;;;;;;4981379;28;20049;-49
2023/12/20 05:47:40;;;;;;;15.00;1.33;;;;;;;;;;4968747;28;20046;-51
2023/12/20 05:50:08;;;;;;;9.80;0.87;;;;;;;;;;4972957;28;20045;-47
2023/12/20 05:52:36;;;;;;;14.68;1.30;;;;;;;;;;4960869;28;20386;-49
2023/12/20 05:55:04;;;;;;;13.23;1.13;;;;;;;;;;4979407;28;20528;-50
2023/12/20 05:57:32;;;;;;;10.25;1.23;;;;;;;;;;4957251;28;20058;-47
2023/12/20 06:00:00;;;;;;;14.90;1.83;;;;;;;;;;4977989;28;20053;-50
2023/12/20 06:02:29;;;;;;;15.53;1.73;;;;;;;;;;4963205;28;20050;-48
2023/12/20 06:04:57;;;;;;;11.18;1.25;;;;;;;;;;4976279;28;20045;-50
2023/12/20 06:07:25;;;;;;;10.75;1.05;;;;;;;;;;4950061;28;20512;-49
2023/12/20 06:09:54;;;;;;;14.32;1.45;;;;;;;;;;4971989;28;20074;-51
2023/12/20 06:12:21;;;;;;;12.23;0.98;;;;;;;;;;4968822;28;20046;-49
2023/12/20 06:14:49;;;;;;;13.00;1.10;;;;;;;;;;4977053;28;20038;-48
2023/12/20 06:17:17;;;;;;;12.05;1.40;;;;;;;;;;4974127;28;20131;-53
2023/12/20 06:19:48;;;;;;;12.43;1.85;;;;;;;;;;4970060;28;20408;-49
2023/12/20 06:22:17;;;;;;;19.98;1.67;;;;;;;;;;4968383;28;20593;-50
2023/12/20 06:24:45;;;;;;;10.80;1.08;;;;;;;;;;4966199;28;20388;-51
2023/12/20 06:27:13;;;;;;;12.13;1.37;;;;;;;;;;4981231;28;20484;-49
2023/12/20 06:29:42;;;;;;;13.75;1.80;;;;;;;;;;4982840;28;20046;-49
2023/12/20 06:32:10;;;;;;;6.32;0.85;;;;;;;;;;4958319;28;20042;-50
2023/12/20 06:34:38;;;;;;;5.57;0.88;;;;;;;;;;4975302;28;20034;-47
2023/12/20 06:37:11;;;;;;;9.13;1.05;;;;;;;;;;4983317;28;20041;-52
2023/12/20 06:39:39;;;;;;;9.20;0.70;;;;;;;;;;4976036;28;20173;-52
2023/12/20 06:42:07;;;;;;;12.13;1.95;;;;;;;;;;4975325;28;20026;-49
2023/12/20 06:44:35;;;;;;;8.68;1.23;;;;;;;;;;4960733;28;20046;-50
2023/12/20 06:47:03;;;;;;;8.40;1.15;;;;;;;;;;4975166;28;20051;-49
2023/12/20 06:49:34;;;;;;;14.27;1.88;;;;;;;;;;4968421;28;20048;-48
2023/12/20 06:52:02;;;;;;;16.87;1.40;;;;;;;;;;4976963;28;20432;-47
2023/12/20 06:54:31;;;;;;;9.30;0.80;;;;;;;;;;4964603;28;21030;-48
2023/12/20 06:57:02;;;;;;;13.18;1.67;;;;;;;;;;4930634;28;1327338;-53
2023/12/20 06:59:31;;;;;;;12.98;1.17;;;;;;;;;;4974599;28;20046;-49
2023/12/20 07:01:58;;;;;;;8.43;1.50;;;;;;;;;;4969614;28;20068;-51
2023/12/20 07:04:26;;;;;;;12.30;1.50;;;;;;;;;;4966153;28;20064;-50
2023/12/20 07:06:57;;;;;;;11.05;1.02;;;;;;;;;;4990857;28;20069;-50
2023/12/20 07:09:25;;;;;;;6.90;0.77;;;;;;;;;;4974631;28;20042;-49
2023/12/20 07:11:54;;;;;;;8.27;1.75;;;;;;;;;;4981619;28;20065;-51
2023/12/20 07:14:22;;;;;;;9.83;1.93;;;;;;;;;;4974441;28;20049;-48
2023/12/20 07:16:51;;;;;;;8.38;1.13;;;;;;;;;;4980712;28;20408;-50
2023/12/20 07:19:21;;;;;;;9.70;1.15;;;;;;;;;;4984277;28;20515;-50
2023/12/20 07:21:49;;;;;;;19.23;1.95;;;;;;;;;;4962744;28;20042;-48
2023/12/20 07:24:17;;;;;;;12.10;1.30;;;;;;;;;;4967885;28;20049;-51
2023/12/20 07:26:44;;;;;;;8.83;1.00;;;;;;;;;;4972576;28;20511;-53
2023/12/20 07:29:14;;;;;;;11.45;0.68;;;;;;;;;;4972366;28;20053;-52
2023/12/20 07:31:42;;;;;;;10.45;1.20;;;;;;;;;;4972786;28;20327;-49
2023/12/20 07:34:10;;;;;;;11.55;0.93;;;;;;;;;;4987316;28;20038;-48
2023/12/20 07:36:38;;;;;;;12.02;1.25;;;;;;;;;;4966705;28;20146;-52
2023/12/20 07:39:06;;;;;;;8.37;0.93;;;;;;;;;;4981788;28;20052;-50
2023/12/20 07:41:33;;;;;;;14.05;0.98;;;;;;;;;;4966304;28;20034;-48
2023/12/20 07:44:01;;;;;;;8.73;0.50;;;;;;;;;;4973720;28;20042;-52
2023/12/20 07:46:30;;;;;;;8.07;1.42;;;;;;;;;;4968501;28;20547;-50
2023/12/20 07:48:58;;;;;;;9.50;0.93;;;;;;;;;;4971958;28;20049;-51
2023/12/20 07:51:27;;;;;;;9.00;1.50;;;;;;;;;;4976456;28;20049;-52
2023/12/20 07:53:55;;;;;;;9.20;1.02;;;;;;;;;;4956685;28;20056;-51
2023/12/20 07:56:22;;;;;;;10.63;1.20;;;;;;;;;;4982677;28;20065;-51
2023/12/20 07:59:29;;;;;;;8.63;0.85;;;;;;;;;;4918784;28;20116;-51
2023/12/20 08:02:01;;;;;;;10.00;0.95;;;;;;;;;;4818764;28;20682;-49
2023/12/20 08:04:29;;;;;;;7.87;0.60;;;;;;;;;;4966686;28;20068;-52
2023/12/20 08:06:57;;;;;;;18.27;1.73;;;;;;;;;;4960647;28;20929;-52
2023/12/20 08:09:25;;;;;;;10.45;0.90;;;;;;;;;;4980333;28;20049;-50
2023/12/20 08:11:53;;;;;;;8.65;0.90;;;;;;;;;;4972219;28;20712;-49
2023/12/20 08:14:20;;;;;;;7.72;0.93;;;;;;;;;;4973899;28;20451;-52
2023/12/20 08:16:49;;;;;;;5.07;0.97;;;;;;;;;;4981872;28;20061;-50
2023/12/20 08:19:20;;;;;;;9.38;0.85;;;;;;;;;;4982115;28;20046;-48
2023/12/20 08:21:48;;;;;;;7.00;0.68;;;;;;;;;;4967837;28;20038;-53
2023/12/20 08:24:17;;;;;;;6.63;1.27;;;;;;;;;;4971769;28;20038;-50
2023/12/20 08:26:46;;;;;;;7.85;1.02;;;;;;;;;;4971748;28;20065;-52
2023/12/20 08:29:13;;;;;;;10.90;1.30;;;;;;;;;;4974777;28;20042;-52
2023/12/20 08:31:46;;;;;;;5.45;0.60;;;;;;;;;;4977229;28;20042;-52
2023/12/20 08:34:14;;;;;;;7.72;0.90;;;;;;;;;;4981518;28;20076;-51
2023/12/20 08:36:44;;;;;;;6.43;0.93;;;;;;;;;;4960724;28;20081;-55
2023/12/20 08:39:12;;;;;;;4.78;0.82;;;;;;;;;;4968778;28;20042;-54
2023/12/20 08:41:41;;;;;;;10.53;0.80;;;;;;;;;;4971366;28;23233;-54
2023/12/20 08:44:09;;;;;;;8.57;0.80;;;;;;;;;;4983712;28;20042;-50
2023/12/20 08:46:37;;;;;;;6.07;1.00;;;;;;;;;;4965518;28;20435;-48
2023/12/20 08:49:04;;;;;;;12.80;1.38;;;;;;;;;;4974852;28;20108;-49
2023/12/20 08:51:33;;;;;;;6.47;1.00;;;;;;;;;;4975379;28;20512;-51
2023/12/20 08:54:07;;;;;;;12.63;1.37;;;;;;;;;;4964984;28;20046;-50
2023/12/20 08:56:35;;;;;;;8.15;0.82;;;;;;;;;;4982199;28;20153;-52
2023/12/20 08:59:02;;;;;;;13.60;1.58;;;;;;;;;;4941038;28;20867;-52
2023/12/20 09:01:30;;;;;;;8.05;1.33;;;;;;;;;;4982118;28;20049;-51
2023/12/20 09:03:58;;;;;;;6.28;1.20;;;;;;;;;;4952372;28;20104;-50
2023/12/20 09:06:26;;;;;;;7.43;1.00;;;;;;;;;;4980831;28;20037;-49
2023/12/20 09:08:53;;;;;;;8.95;1.00;;;;;;;;;;4958434;28;20041;-50
2023/12/20 09:11:24;;;;;;;5.25;0.70;;;;;;;;;;4979976;28;20049;-55
2023/12/20 09:13:52;;;;;;;6.63;0.80;;;;;;;;;;4977150;28;20076;-52
2023/12/20 09:16:20;;;;;;;8.60;0.98;;;;;;;;;;4972855;28;20053;-50
2023/12/20 09:18:48;;;;;;;7.43;0.70;;;;;;;;;;4954130;28;20564;-49
2023/12/20 09:21:16;;;;;;;7.22;0.98;;;;;;;;;;4966033;28;20045;-49
2023/12/20 09:23:44;;;;;;;5.35;0.93;;;;;;;;;;4964123;28;20460;-51
2023/12/20 09:26:13;;;;;;;7.68;1.67;;;;;;;;;;4961705;28;20046;-50
2023/12/20 09:28:42;;;;;;;4.78;0.70;;;;;;;;;;4962964;28;20065;-51
2023/12/20 09:31:10;;;;;;;5.93;0.57;;;;;;;;;;4983361;28;20069;-53
2023/12/20 09:33:38;;;;;;;4.72;0.60;;;;;;;;;;4972267;28;20033;-49
2023/12/20 09:36:10;;;;;;;4.80;1.10;;;;;;;;;;4976700;28;20048;-53
2023/12/20 09:38:38;;;;;;;9.60;0.73;;;;;;;;;;4975933;28;20459;-48
2023/12/20 09:41:06;;;;;;;7.40;0.73;;;;;;;;;;4967104;28;20042;-50
2023/12/20 09:43:35;;;;;;;2.60;0.50;;;;;;;;;;4969721;28;20421;-48
2023/12/20 09:46:06;;;;;;;8.07;1.25;;;;;;;;;;4970981;28;20049;-52
2023/12/20 09:48:35;;;;;;;7.57;0.70;;;;;;;;;;4966983;28;20906;-52
2023/12/20 09:51:03;;;;;;;5.95;0.60;;;;;;;;;;4970429;28;20137;-48
2023/12/20 09:53:31;;;;;;;6.55;0.90;;;;;;;;;;4972456;28;20481;-47
2023/12/20 09:56:00;;;;;;;7.17;1.10;;;;;;;;;;4619812;28;10000061;-49
2023/12/20 09:58:28;;;;;;;7.63;1.10;;;;;;;;;;4962637;28;20485;-47
2023/12/20 10:00:56;;;;;;;9.40;0.77;;;;;;;;;;4966358;28;20046;-48
2023/12/20 10:03:28;;;;;;;7.47;1.35;;;;;;;;;;4970659;28;20495;-51
2023/12/20 10:05:58;;;;;;;4.30;0.52;;;;;;;;;;4971834;28;20050;-49
2023/12/20 10:08:27;;;;;;;4.72;0.65;;;;;;;;;;4944943;28;20131;-49
2023/12/20 10:10:55;;;;;;;10.17;1.33;;;;;;;;;;4976605;28;20095;-50
2023/12/20 10:13:23;;;;;;;5.20;0.55;;;;;;;;;;4954867;28;20084;-48
2023/12/20 10:15:51;;;;;;;4.57;0.50;;;;;;;;;;4965915;28;20164;-50
2023/12/20 10:18:19;;;;;;;3.28;0.30;;;;;;;;;;4964236;28;20050;-50
2023/12/20 10:20:48;;;;;;;4.88;0.65;;;;;;;;;;4620792;28;10000093;-48
2023/12/20 10:23:18;;;;;;;5.80;0.40;;;;;;;;;;4971363;28;20135;-47
2023/12/20 10:25:56;;;;;;;5.47;0.83;;;;;;;;;;4968092;28;20038;-48
2023/12/20 10:28:27;;;;;;;7.55;0.93;;;;;;;;;;4948440;28;20042;-46
2023/12/20 10:30:56;;;;;;;5.57;0.70;;;;;;;;;;4961204;28;20034;-47
2023/12/20 10:33:25;;;;;;;9.57;0.90;;;;;;;;;;4954222;28;20812;-50
2023/12/20 10:35:56;;;;;;;6.32;0.50;;;;;;;;;;4958591;28;20046;-51
2023/12/20 10:38:24;;;;;;;3.23;0.40;;;;;;;;;;4947872;28;20054;-49
2023/12/20 10:40:56;;;;;;;7.82;0.75;;;;;;;;;;4969838;28;20124;-52
2023/12/20 10:43:27;;;;;;;4.80;0.68;;;;;;;;;;4965314;28;20046;-49
2023/12/20 10:45:55;;;;;;;6.90;0.75;;;;;;;;;;4954080;28;20676;-47
2023/12/20 10:48:28;;;;;;;4.72;0.55;;;;;;;;;;4964717;28;20050;-50
2023/12/20 10:50:59;;;;;;;8.23;0.60;;;;;;;;;;4962294;28;20052;-49
2023/12/20 10:53:26;;;;;;;6.53;0.70;;;;;;;;;;4963351;28;20507;-47
2023/12/20 10:55:56;;;;;;;7.72;0.68;;;;;;;;;;4954005;28;20132;-47
2023/12/20 10:58:25;;;;;;;8.85;1.23;;;;;;;;;;4956367;28;20069;-50
2023/12/20 11:00:56;;;;;;;5.93;0.73;;;;;;;;;;4961024;28;20064;-47
2023/12/20 11:03:24;;;;;;;2.60;0.40;;;;;;;;;;4956472;28;20056;-48
2023/12/20 11:05:57;;;;;;;7.53;0.63;;;;;;;;;;4955926;28;20917;-47
2023/12/20 11:08:29;;;;;;;4.45;0.70;;;;;;;;;;4943468;28;20156;-48
2023/12/20 11:11:00;;;;;;;7.13;0.90;;;;;;;;;;4968170;28;20042;-47
2023/12/20 11:13:31;;;;;;;6.88;0.85;;;;;;;;;;4952936;28;21108;-49
2023/12/20 11:15:59;;;;;;;5.47;0.97;;;;;;;;;;4959600;28;20479;-50
2023/12/20 11:18:30;;;;;;;7.85;0.80;;;;;;;;;;4959269;28;20053;-47
2023/12/20 11:21:05;;;;;;;5.88;0.68;;;;;;;;;;4954537;28;21267;-50
2023/12/20 11:23:34;;;;;;;3.67;0.60;;;;;;;;;;4949103;28;20046;-51
2023/12/20 11:26:04;;;;;;;6.70;0.80;;;;;;;;;;4958789;28;20050;-49
2023/12/20 11:28:33;;;;;;;5.20;0.67;;;;;;;;;;4933992;28;20049;-50
2023/12/20 11:31:02;;;;;;;4.53;0.70;;;;;;;;;;4956981;28;20038;-48
2023/12/20 11:33:31;;;;;;;5.47;0.93;;;;;;;;;;4942811;28;20595;-47
2023/12/20 11:36:00;;;;;;;8.05;0.70;;;;;;;;;;4956649;28;21402;-50
2023/12/20 11:38:28;;;;;;;7.25;0.90;;;;;;;;;;4939761;28;20042;-50
2023/12/20 11:41:03;;;;;;;4.83;1.00;;;;;;;;;;4963848;28;20631;-49
2023/12/20 11:43:31;;;;;;;4.75;0.60;;;;;;;;;;4955261;28;20116;-46
2023/12/20 11:46:03;;;;;;;4.38;0.60;;;;;;;;;;4942346;28;20049;-53
2023/12/20 11:48:49;;;;;;;4.40;0.57;;;;;;;;;;4976631;28;20054;-48
2023/12/20 11:51:17;;;;;;;6.70;0.85;;;;;;;;;;4961534;28;20045;-52
2023/12/20 11:53:44;;;;;;;7.20;0.87;;;;;;;;;;4974692;28;20369;-50
2023/12/20 11:56:17;;;;;;;9.45;1.67;;;;;;;;;;4972046;28;20515;-48
2023/12/20 11:58:45;;;;;;;4.50;0.73;;;;;;;;;;4960426;28;20122;-51
2023/12/20 12:01:16;;;;;;;3.42;0.55;;;;;;;;;;4972857;28;20045;-50
2023/12/20 12:03:44;;;;;;;6.50;0.75;;;;;;;;;;4962527;28;20045;-47
2023/12/20 12:06:12;;;;;;;6.47;1.00;;;;;;;;;;4981573;28;20045;-47
2023/12/20 12:08:40;;;;;;;9.52;1.02;;;;;;;;;;4970907;28;20378;-47
2023/12/20 12:11:08;;;;;;;7.65;0.80;;;;;;;;;;4981326;28;20044;-47
2023/12/20 12:13:37;;;;;;;4.30;0.50;;;;;;;;;;4969586;28;20038;-47
2023/12/20 12:16:05;;;;;;;3.72;1.05;;;;;;;;;;4962159;28;20046;-48
2023/12/20 12:18:34;;;;;;;7.13;0.90;;;;;;;;;;4951274;28;20046;-47
2023/12/20 12:21:02;;;;;;;4.65;0.80;;;;;;;;;;4965833;28;20050;-48
2023/12/20 12:23:41;;;;;;;5.80;0.80;;;;;;;;;;4621576;28;10000252;-52
2023/12/20 12:26:09;;;;;;;9.18;1.00;;;;;;;;;;4967809;28;20052;-50
2023/12/20 12:28:40;;;;;;;2.88;0.40;;;;;;;;;;4961085;28;20871;-47
2023/12/20 12:31:08;;;;;;;3.33;0.70;;;;;;;;;;4968104;28;20042;-49
2023/12/20 12:33:36;;;;;;;7.22;0.98;;;;;;;;;;4966131;28;20347;-50
2023/12/20 12:36:07;;;;;;;5.50;0.60;;;;;;;;;;4975295;28;20041;-48
2023/12/20 12:38:58;;;;;;;8.27;0.95;;;;;;;;;;4981575;28;20044;-47
2023/12/20 12:41:26;;;;;;;6.95;1.27;;;;;;;;;;4968358;28;20591;-47
2023/12/20 12:43:55;;;;;;;5.53;0.65;;;;;;;;;;4990669;28;20041;-47
2023/12/20 12:46:29;;;;;;;6.03;0.90;;;;;;;;;;4967579;28;20048;-47
2023/12/20 12:48:57;;;;;;;6.30;1.07;;;;;;;;;;4983143;28;20053;-48
2023/12/20 12:51:25;;;;;;;7.00;0.73;;;;;;;;;;4974359;28;20046;-50
2023/12/20 12:53:53;;;;;;;7.10;0.93;;;;;;;;;;4970513;28;20160;-47
2023/12/20 12:56:23;;;;;;;5.43;0.60;;;;;;;;;;4975970;28;20064;-47
2023/12/20 12:58:50;;;;;;;6.82;0.90;;;;;;;;;;4961610;28;20042;-49
2023/12/20 13:01:19;;;;;;;4.67;0.60;;;;;;;;;;4979206;28;20119;-48
2023/12/20 13:03:47;;;;;;;4.20;0.65;;;;;;;;;;4960558;28;20837;-47
2023/12/20 13:06:15;;;;;;;5.95;0.63;;;;;;;;;;4975715;28;20416;-51
2023/12/20 13:08:44;;;;;;;3.88;0.60;;;;;;;;;;4961322;28;20455;-50
2023/12/20 13:11:12;;;;;;;3.63;0.65;;;;;;;;;;4988263;28;20030;-49
2023/12/20 13:13:40;;;;;;;3.47;0.50;;;;;;;;;;4965558;28;20053;-49
2023/12/20 13:16:09;;;;;;;5.03;0.88;;;;;;;;;;4972376;28;20030;-53
2023/12/20 13:18:42;;;;;;;5.28;0.80;;;;;;;;;;4967791;28;21003;-47
2023/12/20 13:21:10;;;;;;;3.33;0.80;;;;;;;;;;4981813;28;22085;-47
2023/12/20 13:23:38;;;;;;;5.30;0.77;;;;;;;;;;4965354;28;20949;-47
2023/12/20 13:26:07;;;;;;;16.20;2.17;;;;;;;;;;4967390;28;20404;-48
2023/12/20 13:28:35;;;;;;;5.00;1.05;;;;;;;;;;4955675;28;20049;-49
2023/12/20 13:31:03;;;;;;;6.40;1.05;;;;;;;;;;4965081;28;20049;-48
2023/12/20 13:33:31;;;;;;;4.80;0.73;;;;;;;;;;4982484;28;20049;-50
2023/12/20 13:36:01;;;;;;;7.03;1.23;;;;;;;;;;4959628;28;20160;-50
2023/12/20 13:38:35;;;;;;;3.53;0.60;;;;;;;;;;4976522;28;20160;-47
2023/12/20 13:41:03;;;;;;;10.25;1.02;;;;;;;;;;4967360;28;20053;-47
2023/12/20 13:43:32;;;;;;;9.95;1.05;;;;;;;;;;4972700;28;20401;-51
2023/12/20 13:46:00;;;;;;;7.40;0.90;;;;;;;;;;4613866;28;9999821;-48
2023/12/20 13:48:45;;;;;;;9.70;1.70;;;;;;;;;;4963978;28;20041;-49
2023/12/20 13:51:15;;;;;;;6.47;1.10;;;;;;;;;;4966247;28;20041;-53
2023/12/20 13:53:43;;;;;;;7.03;1.08;;;;;;;;;;4973938;28;20046;-50
2023/12/20 13:56:11;;;;;;;5.88;1.25;;;;;;;;;;4965074;28;20544;-48
2023/12/20 13:58:39;;;;;;;9.55;1.10;;;;;;;;;;4963199;28;20034;-48
2023/12/20 14:01:07;;;;;;;6.55;1.17;;;;;;;;;;4967647;28;20137;-49
2023/12/20 14:03:36;;;;;;;7.27;0.80;;;;;;;;;;4966453;28;20449;-51
2023/12/20 14:06:04;;;;;;;5.97;1.08;;;;;;;;;;4980022;28;20044;-49
2023/12/20 14:08:33;;;;;;;5.47;0.90;;;;;;;;;;4964816;28;20148;-48
2023/12/20 14:11:01;;;;;;;8.80;0.98;;;;;;;;;;4961216;28;20060;-52
2023/12/20 14:13:29;;;;;;;5.40;1.02;;;;;;;;;;4960656;28;20263;-48
2023/12/20 14:15:58;;;;;;;5.67;1.00;;;;;;;;;;4634139;28;10000259;-47
2023/12/20 14:18:26;;;;;;;6.20;1.00;;;;;;;;;;4970185;28;20330;-48
2023/12/20 14:20:55;;;;;;;5.18;0.77;;;;;;;;;;4970451;28;20037;-48
2023/12/20 14:23:23;;;;;;;8.82;1.00;;;;;;;;;;4968893;28;20041;-47
2023/12/20 14:25:52;;;;;;;9.68;0.93;;;;;;;;;;4956719;28;20060;-51
2023/12/20 14:28:20;;;;;;;3.67;0.50;;;;;;;;;;4957459;28;20146;-51
2023/12/20 14:30:48;;;;;;;4.27;0.80;;;;;;;;;;4959662;28;20730;-48
2023/12/20 14:33:17;;;;;;;9.77;1.20;;;;;;;;;;4977484;28;22073;-49
2023/12/20 14:35:45;;;;;;;7.47;0.65;;;;;;;;;;4976556;28;20044;-50
2023/12/20 14:38:14;;;;;;;4.45;0.57;;;;;;;;;;4986240;28;20034;-47
2023/12/20 14:40:42;;;;;;;7.00;0.70;;;;;;;;;;4975014;28;20050;-47
2023/12/20 14:43:12;;;;;;;8.30;1.00;;;;;;;;;;4964100;28;20042;-47
2023/12/20 14:45:39;;;;;;;3.97;0.60;;;;;;;;;;4981879;28;20042;-48
2023/12/20 14:48:07;;;;;;;4.38;0.93;;;;;;;;;;4973709;28;20046;-48
2023/12/20 14:50:36;;;;;;;6.10;0.75;;;;;;;;;;4974289;28;20125;-51